sensor_id;sensor_type;location;lat;lon;timestamp;P1;durP1;ratioP1;P2;durP2;ratioP2
31298;SDS011;17927;52.350;13.402;2023-04-03T00:00:42;6.97;;;1.33;;
31298;SDS011;17927;52.350;13.402;2023-04-03T00:03:08;5.15;;;1.20;;
31298;SDS011;17927;52.350;13.402;2023-04-03T00:05:33;5.47;;;1.40;;
31298;SDS011;17927;52.350;13.402;2023-04-03T00:07:58;5.80;;;1.55;;
31298;SDS011;17927;52.350;13.402;2023-04-03T00:10:24;8.32;;;2.13;;
31298;SDS011;17927;52.350;13.402;2023-04-03T00:12:49;5.90;;;1.58;;
31298;SDS011;17927;52.350;13.402;2023-04-03T00:15:15;2.85;;;1.38;;
31298;SDS011;17927;52.350;13.402;2023-04-03T00:17:40;6.18;;;1.40;;
31298;SDS011;17927;52.350;13.402;2023-04-03T00:20:05;5.45;;;1.65;;
31298;SDS011;17927;52.350;13.402;2023-04-03T00:22:31;6.22;;;1.40;;
31298;SDS011;17927;52.350;13.402;2023-04-03T00:24:56;4.80;;;1.33;;
31298;SDS011;17927;52.350;13.402;2023-04-03T00:27:22;3.53;;;1.40;;
31298;SDS011;17927;52.350;13.402;2023-04-03T00:29:47;4.30;;;1.17;;
31298;SDS011;17927;52.350;13.402;2023-04-03T00:32:12;2.92;;;0.93;;
31298;SDS011;17927;52.350;13.402;2023-04-03T00:34:38;3.95;;;1.30;;
31298;SDS011;17927;52.350;13.402;2023-04-03T00:37:03;5.63;;;1.25;;
31298;SDS011;17927;52.350;13.402;2023-04-03T00:39:28;7.57;;;1.38;;
31298;SDS011;17927;52.350;13.402;2023-04-03T00:41:54;4.45;;;1.17;;
31298;SDS011;17927;52.350;13.402;2023-04-03T00:44:20;3.28;;;1.02;;
31298;SDS011;17927;52.350;13.402;2023-04-03T00:46:47;7.35;;;1.40;;
31298;SDS011;17927;52.350;13.402;2023-04-03T00:49:12;3.03;;;1.08;;
31298;SDS011;17927;52.350;13.402;2023-04-03T00:51:37;4.63;;;1.15;;
31298;SDS011;17927;52.350;13.402;2023-04-03T00:54:03;7.53;;;1.05;;
31298;SDS011;17927;52.350;13.402;2023-04-03T00:56:31;4.75;;;1.20;;
31298;SDS011;17927;52.350;13.402;2023-04-03T00:58:59;4.65;;;1.52;;
31298;SDS011;17927;52.350;13.402;2023-04-03T01:01:29;5.40;;;1.45;;
31298;SDS011;17927;52.350;13.402;2023-04-03T01:03:55;2.15;;;0.90;;
31298;SDS011;17927;52.350;13.402;2023-04-03T01:06:21;2.75;;;1.10;;
31298;SDS011;17927;52.350;13.402;2023-04-03T01:08:57;2.85;;;1.08;;
31298;SDS011;17927;52.350;13.402;2023-04-03T01:11:22;5.15;;;1.30;;
31298;SDS011;17927;52.350;13.402;2023-04-03T01:13:48;4.78;;;1.50;;
31298;SDS011;17927;52.350;13.402;2023-04-03T01:16:14;4.15;;;1.17;;
31298;SDS011;17927;52.350;13.402;2023-04-03T01:18:39;4.43;;;1.25;;
31298;SDS011;17927;52.350;13.402;2023-04-03T01:21:09;2.83;;;1.20;;
31298;SDS011;17927;52.350;13.402;2023-04-03T01:23:46;11.25;;;1.67;;
31298;SDS011;17927;52.350;13.402;2023-04-03T01:26:22;5.78;;;1.42;;
31298;SDS011;17927;52.350;13.402;2023-04-03T01:28:47;4.43;;;1.27;;
31298;SDS011;17927;52.350;13.402;2023-04-03T01:33:53;5.53;;;1.27;;
31298;SDS011;17927;52.350;13.402;2023-04-03T01:36:20;2.45;;;1.15;;
31298;SDS011;17927;52.350;13.402;2023-04-03T01:38:50;2.92;;;0.82;;
31298;SDS011;17927;52.350;13.402;2023-04-03T01:41:16;5.45;;;1.02;;
31298;SDS011;17927;52.350;13.402;2023-04-03T01:43:42;4.88;;;1.10;;
31298;SDS011;17927;52.350;13.402;2023-04-03T01:46:07;5.43;;;1.20;;
31298;SDS011;17927;52.350;13.402;2023-04-03T01:48:33;2.95;;;1.15;;
31298;SDS011;17927;52.350;13.402;2023-04-03T01:50:58;6.32;;;1.83;;
31298;SDS011;17927;52.350;13.402;2023-04-03T01:53:24;3.30;;;1.50;;
31298;SDS011;17927;52.350;13.402;2023-04-03T01:55:49;5.40;;;0.90;;
31298;SDS011;17927;52.350;13.402;2023-04-03T01:58:14;4.15;;;1.00;;
31298;SDS011;17927;52.350;13.402;2023-04-03T02:00:39;3.17;;;1.10;;
31298;SDS011;17927;52.350;13.402;2023-04-03T02:03:05;4.25;;;1.25;;
31298;SDS011;17927;52.350;13.402;2023-04-03T02:05:30;2.15;;;1.30;;
31298;SDS011;17927;52.350;13.402;2023-04-03T02:07:55;1.90;;;1.02;;
31298;SDS011;17927;52.350;13.402;2023-04-03T02:10:21;6.18;;;1.10;;
31298;SDS011;17927;52.350;13.402;2023-04-03T02:12:46;3.83;;;1.17;;
31298;SDS011;17927;52.350;13.402;2023-04-03T02:15:11;2.30;;;1.23;;
31298;SDS011;17927;52.350;13.402;2023-04-03T02:17:37;4.22;;;1.13;;
31298;SDS011;17927;52.350;13.402;2023-04-03T02:20:02;3.90;;;1.20;;
31298;SDS011;17927;52.350;13.402;2023-04-03T02:22:28;3.33;;;1.33;;
31298;SDS011;17927;52.350;13.402;2023-04-03T02:24:53;4.97;;;1.35;;
31298;SDS011;17927;52.350;13.402;2023-04-03T02:27:18;2.10;;;0.88;;
31298;SDS011;17927;52.350;13.402;2023-04-03T02:29:44;5.10;;;1.40;;
31298;SDS011;17927;52.350;13.402;2023-04-03T02:32:09;4.07;;;1.40;;
31298;SDS011;17927;52.350;13.402;2023-04-03T02:34:34;5.90;;;1.10;;
31298;SDS011;17927;52.350;13.402;2023-04-03T02:37:00;4.18;;;1.00;;
31298;SDS011;17927;52.350;13.402;2023-04-03T02:39:25;4.00;;;1.67;;
31298;SDS011;17927;52.350;13.402;2023-04-03T02:41:51;5.13;;;1.20;;
31298;SDS011;17927;52.350;13.402;2023-04-03T02:44:16;10.10;;;1.50;;
31298;SDS011;17927;52.350;13.402;2023-04-03T02:46:41;6.60;;;2.80;;
31298;SDS011;17927;52.350;13.402;2023-04-03T02:49:06;5.60;;;2.38;;
31298;SDS011;17927;52.350;13.402;2023-04-03T02:51:32;7.47;;;3.15;;
31298;SDS011;17927;52.350;13.402;2023-04-03T02:53:57;2.55;;;2.20;;
31298;SDS011;17927;52.350;13.402;2023-04-03T02:56:22;4.95;;;2.13;;
31298;SDS011;17927;52.350;13.402;2023-04-03T02:58:47;2.75;;;1.48;;
31298;SDS011;17927;52.350;13.402;2023-04-03T03:01:13;6.15;;;1.50;;
31298;SDS011;17927;52.350;13.402;2023-04-03T03:03:38;4.93;;;1.20;;
31298;SDS011;17927;52.350;13.402;2023-04-03T03:06:07;2.67;;;1.15;;
31298;SDS011;17927;52.350;13.402;2023-04-03T03:08:35;6.13;;;2.10;;
31298;SDS011;17927;52.350;13.402;2023-04-03T03:11:01;7.75;;;2.58;;
31298;SDS011;17927;52.350;13.402;2023-04-03T03:13:27;6.53;;;2.42;;
31298;SDS011;17927;52.350;13.402;2023-04-03T03:15:52;8.65;;;1.92;;
31298;SDS011;17927;52.350;13.402;2023-04-03T03:18:17;3.78;;;1.35;;
31298;SDS011;17927;52.350;13.402;2023-04-03T03:20:43;3.63;;;1.40;;
31298;SDS011;17927;52.350;13.402;2023-04-03T03:23:08;5.93;;;1.40;;
31298;SDS011;17927;52.350;13.402;2023-04-03T03:25:37;3.42;;;1.20;;
31298;SDS011;17927;52.350;13.402;2023-04-03T03:28:03;2.38;;;0.90;;
31298;SDS011;17927;52.350;13.402;2023-04-03T03:30:29;5.55;;;1.83;;
31298;SDS011;17927;52.350;13.402;2023-04-03T03:32:54;4.63;;;1.30;;
31298;SDS011;17927;52.350;13.402;2023-04-03T03:35:19;3.75;;;1.10;;
31298;SDS011;17927;52.350;13.402;2023-04-03T03:37:45;5.50;;;1.48;;
31298;SDS011;17927;52.350;13.402;2023-04-03T03:40:10;2.58;;;1.10;;
31298;SDS011;17927;52.350;13.402;2023-04-03T03:42:37;6.25;;;2.00;;
31298;SDS011;17927;52.350;13.402;2023-04-03T03:45:03;6.47;;;3.03;;
31298;SDS011;17927;52.350;13.402;2023-04-03T03:47:28;4.45;;;3.05;;
31298;SDS011;17927;52.350;13.402;2023-04-03T03:49:54;6.07;;;2.67;;
31298;SDS011;17927;52.350;13.402;2023-04-03T03:52:19;4.45;;;2.25;;
31298;SDS011;17927;52.350;13.402;2023-04-03T03:54:44;2.20;;;1.33;;
31298;SDS011;17927;52.350;13.402;2023-04-03T03:57:10;2.88;;;1.40;;
31298;SDS011;17927;52.350;13.402;2023-04-03T03:59:35;5.55;;;1.52;;
31298;SDS011;17927;52.350;13.402;2023-04-03T04:02:01;7.93;;;1.85;;
31298;SDS011;17927;52.350;13.402;2023-04-03T04:04:26;5.93;;;2.08;;
31298;SDS011;17927;52.350;13.402;2023-04-03T04:06:51;7.35;;;1.70;;
31298;SDS011;17927;52.350;13.402;2023-04-03T04:09:16;6.93;;;1.60;;
31298;SDS011;17927;52.350;13.402;2023-04-03T04:11:42;2.25;;;1.30;;
31298;SDS011;17927;52.350;13.402;2023-04-03T04:14:07;10.18;;;1.95;;
31298;SDS011;17927;52.350;13.402;2023-04-03T04:16:32;6.35;;;1.70;;
31298;SDS011;17927;52.350;13.402;2023-04-03T04:18:58;4.32;;;1.70;;
31298;SDS011;17927;52.350;13.402;2023-04-03T04:21:23;5.72;;;1.60;;
31298;SDS011;17927;52.350;13.402;2023-04-03T04:23:48;8.77;;;1.48;;
31298;SDS011;17927;52.350;13.402;2023-04-03T04:26:13;5.28;;;1.60;;
31298;SDS011;17927;52.350;13.402;2023-04-03T04:28:38;7.20;;;1.60;;
31298;SDS011;17927;52.350;13.402;2023-04-03T04:31:04;5.65;;;1.52;;
31298;SDS011;17927;52.350;13.402;2023-04-03T04:33:29;9.60;;;1.70;;
31298;SDS011;17927;52.350;13.402;2023-04-03T04:35:55;6.68;;;1.77;;
31298;SDS011;17927;52.350;13.402;2023-04-03T04:38:20;9.95;;;5.68;;
31298;SDS011;17927;52.350;13.402;2023-04-03T04:40:46;6.25;;;2.40;;
31298;SDS011;17927;52.350;13.402;2023-04-03T04:43:12;2.65;;;1.65;;
31298;SDS011;17927;52.350;13.402;2023-04-03T04:45:39;3.63;;;1.40;;
31298;SDS011;17927;52.350;13.402;2023-04-03T04:48:05;5.28;;;1.85;;
31298;SDS011;17927;52.350;13.402;2023-04-03T04:50:30;6.07;;;2.00;;
31298;SDS011;17927;52.350;13.402;2023-04-03T04:52:55;6.25;;;1.67;;
31298;SDS011;17927;52.350;13.402;2023-04-03T04:55:21;4.75;;;1.85;;
31298;SDS011;17927;52.350;13.402;2023-04-03T04:57:46;8.15;;;1.90;;
31298;SDS011;17927;52.350;13.402;2023-04-03T05:00:11;7.10;;;1.73;;
31298;SDS011;17927;52.350;13.402;2023-04-03T05:02:38;7.95;;;2.03;;
31298;SDS011;17927;52.350;13.402;2023-04-03T05:05:03;3.95;;;1.75;;
31298;SDS011;17927;52.350;13.402;2023-04-03T05:07:28;3.58;;;2.00;;
31298;SDS011;17927;52.350;13.402;2023-04-03T05:09:54;7.68;;;2.95;;
31298;SDS011;17927;52.350;13.402;2023-04-03T05:12:19;5.07;;;1.80;;
31298;SDS011;17927;52.350;13.402;2023-04-03T05:14:44;4.80;;;2.20;;
31298;SDS011;17927;52.350;13.402;2023-04-03T05:17:10;4.97;;;1.73;;
31298;SDS011;17927;52.350;13.402;2023-04-03T05:19:35;8.48;;;2.15;;
31298;SDS011;17927;52.350;13.402;2023-04-03T05:22:00;8.27;;;2.03;;
31298;SDS011;17927;52.350;13.402;2023-04-03T05:24:25;5.63;;;1.88;;
31298;SDS011;17927;52.350;13.402;2023-04-03T05:26:51;6.93;;;1.80;;
31298;SDS011;17927;52.350;13.402;2023-04-03T05:29:16;5.80;;;2.13;;
31298;SDS011;17927;52.350;13.402;2023-04-03T05:31:41;5.68;;;1.73;;
31298;SDS011;17927;52.350;13.402;2023-04-03T05:34:07;9.48;;;1.70;;
31298;SDS011;17927;52.350;13.402;2023-04-03T05:36:32;6.47;;;1.45;;
31298;SDS011;17927;52.350;13.402;2023-04-03T05:38:57;6.45;;;1.65;;
31298;SDS011;17927;52.350;13.402;2023-04-03T05:41:22;4.15;;;1.67;;
31298;SDS011;17927;52.350;13.402;2023-04-03T05:43:48;8.35;;;3.35;;
31298;SDS011;17927;52.350;13.402;2023-04-03T05:46:15;5.85;;;2.40;;
31298;SDS011;17927;52.350;13.402;2023-04-03T05:48:42;6.63;;;1.50;;
31298;SDS011;17927;52.350;13.402;2023-04-03T05:51:13;4.03;;;1.50;;
31298;SDS011;17927;52.350;13.402;2023-04-03T05:53:48;7.40;;;1.52;;
31298;SDS011;17927;52.350;13.402;2023-04-03T05:56:24;5.38;;;1.50;;
31298;SDS011;17927;52.350;13.402;2023-04-03T05:58:50;6.45;;;1.50;;
31298;SDS011;17927;52.350;13.402;2023-04-03T06:01:15;3.75;;;1.38;;
31298;SDS011;17927;52.350;13.402;2023-04-03T06:03:41;9.57;;;1.98;;
31298;SDS011;17927;52.350;13.402;2023-04-03T06:06:06;4.13;;;1.73;;
31298;SDS011;17927;52.350;13.402;2023-04-03T06:08:32;4.90;;;2.00;;
31298;SDS011;17927;52.350;13.402;2023-04-03T06:10:58;10.50;;;2.17;;
31298;SDS011;17927;52.350;13.402;2023-04-03T06:13:23;5.07;;;1.33;;
31298;SDS011;17927;52.350;13.402;2023-04-03T06:15:49;2.30;;;1.30;;
31298;SDS011;17927;52.350;13.402;2023-04-03T06:18:14;4.50;;;1.63;;
31298;SDS011;17927;52.350;13.402;2023-04-03T06:20:40;11.18;;;1.77;;
31298;SDS011;17927;52.350;13.402;2023-04-03T06:23:05;4.35;;;1.40;;
31298;SDS011;17927;52.350;13.402;2023-04-03T06:25:30;5.72;;;1.88;;
31298;SDS011;17927;52.350;13.402;2023-04-03T06:27:56;6.30;;;2.13;;
31298;SDS011;17927;52.350;13.402;2023-04-03T06:30:21;8.05;;;2.00;;
31298;SDS011;17927;52.350;13.402;2023-04-03T06:32:47;8.88;;;1.30;;
31298;SDS011;17927;52.350;13.402;2023-04-03T06:35:12;6.75;;;1.50;;
31298;SDS011;17927;52.350;13.402;2023-04-03T06:37:37;4.72;;;1.30;;
31298;SDS011;17927;52.350;13.402;2023-04-03T06:40:03;6.80;;;1.77;;
31298;SDS011;17927;52.350;13.402;2023-04-03T06:42:29;2.30;;;1.40;;
31298;SDS011;17927;52.350;13.402;2023-04-03T06:44:55;11.32;;;1.65;;
31298;SDS011;17927;52.350;13.402;2023-04-03T06:47:20;8.10;;;1.40;;
31298;SDS011;17927;52.350;13.402;2023-04-03T06:49:45;4.35;;;1.27;;
31298;SDS011;17927;52.350;13.402;2023-04-03T06:52:11;3.88;;;1.13;;
31298;SDS011;17927;52.350;13.402;2023-04-03T06:54:37;1.73;;;0.80;;
31298;SDS011;17927;52.350;13.402;2023-04-03T06:57:02;5.43;;;1.33;;
31298;SDS011;17927;52.350;13.402;2023-04-03T06:59:28;4.80;;;1.58;;
31298;SDS011;17927;52.350;13.402;2023-04-03T07:01:53;5.55;;;1.17;;
31298;SDS011;17927;52.350;13.402;2023-04-03T07:04:18;2.08;;;0.95;;
31298;SDS011;17927;52.350;13.402;2023-04-03T07:06:45;3.45;;;1.20;;
31298;SDS011;17927;52.350;13.402;2023-04-03T07:09:11;2.80;;;1.17;;
31298;SDS011;17927;52.350;13.402;2023-04-03T07:11:37;3.10;;;1.20;;
31298;SDS011;17927;52.350;13.402;2023-04-03T07:14:02;3.72;;;0.98;;
31298;SDS011;17927;52.350;13.402;2023-04-03T07:16:28;2.67;;;1.08;;
31298;SDS011;17927;52.350;13.402;2023-04-03T07:18:55;3.95;;;0.95;;
31298;SDS011;17927;52.350;13.402;2023-04-03T07:21:20;2.13;;;1.00;;
31298;SDS011;17927;52.350;13.402;2023-04-03T07:23:46;3.45;;;1.13;;
31298;SDS011;17927;52.350;13.402;2023-04-03T07:26:11;3.25;;;1.00;;
31298;SDS011;17927;52.350;13.402;2023-04-03T07:28:36;1.50;;;0.90;;
31298;SDS011;17927;52.350;13.402;2023-04-03T07:31:10;3.35;;;0.85;;
31298;SDS011;17927;52.350;13.402;2023-04-03T07:33:38;8.43;;;2.53;;
31298;SDS011;17927;52.350;13.402;2023-04-03T07:36:04;2.90;;;1.00;;
31298;SDS011;17927;52.350;13.402;2023-04-03T07:38:32;3.25;;;0.77;;
31298;SDS011;17927;52.350;13.402;2023-04-03T07:40:58;4.10;;;1.00;;
31298;SDS011;17927;52.350;13.402;2023-04-03T07:43:23;2.85;;;0.80;;
31298;SDS011;17927;52.350;13.402;2023-04-03T07:45:50;3.47;;;1.13;;
31298;SDS011;17927;52.350;13.402;2023-04-03T07:48:16;1.00;;;0.73;;
31298;SDS011;17927;52.350;13.402;2023-04-03T07:50:42;3.50;;;0.98;;
31298;SDS011;17927;52.350;13.402;2023-04-03T07:53:08;4.25;;;1.55;;
31298;SDS011;17927;52.350;13.402;2023-04-03T07:55:33;3.90;;;1.13;;
31298;SDS011;17927;52.350;13.402;2023-04-03T07:57:59;3.92;;;1.20;;
31298;SDS011;17927;52.350;13.402;2023-04-03T08:00:25;5.50;;;1.17;;
31298;SDS011;17927;52.350;13.402;2023-04-03T08:02:50;3.35;;;1.10;;
31298;SDS011;17927;52.350;13.402;2023-04-03T08:05:19;2.08;;;0.80;;
31298;SDS011;17927;52.350;13.402;2023-04-03T08:07:45;9.35;;;1.27;;
31298;SDS011;17927;52.350;13.402;2023-04-03T08:10:11;1.67;;;0.80;;
31298;SDS011;17927;52.350;13.402;2023-04-03T08:12:37;2.20;;;1.20;;
31298;SDS011;17927;52.350;13.402;2023-04-03T08:15:03;5.25;;;1.10;;
31298;SDS011;17927;52.350;13.402;2023-04-03T08:17:29;3.03;;;0.90;;
31298;SDS011;17927;52.350;13.402;2023-04-03T08:19:54;2.80;;;1.38;;
31298;SDS011;17927;52.350;13.402;2023-04-03T08:22:19;5.13;;;1.00;;
31298;SDS011;17927;52.350;13.402;2023-04-03T08:24:45;1.45;;;0.68;;
31298;SDS011;17927;52.350;13.402;2023-04-03T08:27:10;2.75;;;0.90;;
31298;SDS011;17927;52.350;13.402;2023-04-03T08:29:35;0.98;;;0.80;;
31298;SDS011;17927;52.350;13.402;2023-04-03T08:32:02;7.05;;;0.93;;
31298;SDS011;17927;52.350;13.402;2023-04-03T08:34:28;2.60;;;0.73;;
31298;SDS011;17927;52.350;13.402;2023-04-03T08:36:53;3.08;;;0.85;;
31298;SDS011;17927;52.350;13.402;2023-04-03T08:39:18;3.22;;;0.90;;
31298;SDS011;17927;52.350;13.402;2023-04-03T08:41:44;6.18;;;1.00;;
31298;SDS011;17927;52.350;13.402;2023-04-03T08:46:56;2.85;;;0.90;;
31298;SDS011;17927;52.350;13.402;2023-04-03T08:49:30;0.93;;;0.70;;
31298;SDS011;17927;52.350;13.402;2023-04-03T08:51:59;1.45;;;0.77;;
31298;SDS011;17927;52.350;13.402;2023-04-03T08:54:30;2.03;;;0.70;;
31298;SDS011;17927;52.350;13.402;2023-04-03T08:56:59;1.90;;;0.70;;
31298;SDS011;17927;52.350;13.402;2023-04-03T08:59:28;2.47;;;0.73;;
31298;SDS011;17927;52.350;13.402;2023-04-03T09:01:57;7.75;;;1.00;;
31298;SDS011;17927;52.350;13.402;2023-04-03T09:04:26;3.63;;;1.00;;
31298;SDS011;17927;52.350;13.402;2023-04-03T09:06:58;2.28;;;0.85;;
31298;SDS011;17927;52.350;13.402;2023-04-03T09:09:37;2.70;;;0.98;;
31298;SDS011;17927;52.350;13.402;2023-04-03T09:14:49;1.08;;;0.95;;
31298;SDS011;17927;52.350;13.402;2023-04-03T09:17:42;2.22;;;0.90;;
31298;SDS011;17927;52.350;13.402;2023-04-03T09:20:14;2.15;;;0.95;;
31298;SDS011;17927;52.350;13.402;2023-04-03T09:22:45;2.50;;;1.08;;
31298;SDS011;17927;52.350;13.402;2023-04-03T09:25:13;3.63;;;0.73;;
31298;SDS011;17927;52.350;13.402;2023-04-03T09:28:00;1.50;;;0.60;;
31298;SDS011;17927;52.350;13.402;2023-04-03T09:30:26;4.97;;;0.80;;
31298;SDS011;17927;52.350;13.402;2023-04-03T09:32:53;2.95;;;0.85;;
31298;SDS011;17927;52.350;13.402;2023-04-03T09:35:30;2.88;;;0.90;;
31298;SDS011;17927;52.350;13.402;2023-04-03T09:40:28;3.30;;;0.85;;
31298;SDS011;17927;52.350;13.402;2023-04-03T09:42:56;1.92;;;0.88;;
31298;SDS011;17927;52.350;13.402;2023-04-03T09:45:33;2.45;;;0.95;;
31298;SDS011;17927;52.350;13.402;2023-04-03T09:48:07;1.65;;;0.70;;
31298;SDS011;17927;52.350;13.402;2023-04-03T09:50:52;5.60;;;0.82;;
31298;SDS011;17927;52.350;13.402;2023-04-03T09:53:28;1.85;;;0.90;;
31298;SDS011;17927;52.350;13.402;2023-04-03T09:55:55;2.92;;;1.00;;
31298;SDS011;17927;52.350;13.402;2023-04-03T09:58:40;0.77;;;0.70;;
31298;SDS011;17927;52.350;13.402;2023-04-03T10:01:09;3.75;;;1.75;;
31298;SDS011;17927;52.350;13.402;2023-04-03T10:04:10;1.58;;;0.50;;
31298;SDS011;17927;52.350;13.402;2023-04-03T10:06:44;1.63;;;0.93;;
31298;SDS011;17927;52.350;13.402;2023-04-03T10:11:47;1.40;;;0.65;;
31298;SDS011;17927;52.350;13.402;2023-04-03T10:14:26;4.30;;;1.38;;
31298;SDS011;17927;52.350;13.402;2023-04-03T10:19:44;1.88;;;0.80;;
31298;SDS011;17927;52.350;13.402;2023-04-03T10:28:45;4.45;;;0.77;;
31298;SDS011;17927;52.350;13.402;2023-04-03T10:33:53;1.45;;;0.70;;
31298;SDS011;17927;52.350;13.402;2023-04-03T10:39:23;1.63;;;0.88;;
31298;SDS011;17927;52.350;13.402;2023-04-03T10:42:00;1.58;;;1.00;;
31298;SDS011;17927;52.350;13.402;2023-04-03T10:44:50;3.28;;;0.90;;
31298;SDS011;17927;52.350;13.402;2023-04-03T10:47:27;1.98;;;1.00;;
31298;SDS011;17927;52.350;13.402;2023-04-03T10:50:05;1.23;;;0.85;;
31298;SDS011;17927;52.350;13.402;2023-04-03T10:52:48;3.88;;;0.80;;
31298;SDS011;17927;52.350;13.402;2023-04-03T10:57:55;2.38;;;0.65;;
31298;SDS011;17927;52.350;13.402;2023-04-03T11:00:26;1.75;;;0.93;;
31298;SDS011;17927;52.350;13.402;2023-04-03T11:03:01;3.60;;;0.75;;
31298;SDS011;17927;52.350;13.402;2023-04-03T11:05:39;0.95;;;0.82;;
31298;SDS011;17927;52.350;13.402;2023-04-03T11:08:28;1.13;;;0.77;;
31298;SDS011;17927;52.350;13.402;2023-04-03T11:11:03;1.75;;;0.70;;
31298;SDS011;17927;52.350;13.402;2023-04-03T11:13:56;2.90;;;0.80;;
31298;SDS011;17927;52.350;13.402;2023-04-03T11:16:23;3.88;;;0.88;;
31298;SDS011;17927;52.350;13.402;2023-04-03T11:18:52;1.30;;;0.80;;
31298;SDS011;17927;52.350;13.402;2023-04-03T11:21:35;1.15;;;0.73;;
31298;SDS011;17927;52.350;13.402;2023-04-03T11:24:05;1.23;;;0.60;;
31298;SDS011;17927;52.350;13.402;2023-04-03T11:26:40;2.80;;;0.75;;
31298;SDS011;17927;52.350;13.402;2023-04-03T11:29:11;1.35;;;0.80;;
31298;SDS011;17927;52.350;13.402;2023-04-03T11:31:58;3.28;;;0.80;;
31298;SDS011;17927;52.350;13.402;2023-04-03T11:36:59;1.05;;;0.90;;
31298;SDS011;17927;52.350;13.402;2023-04-03T11:39:32;1.75;;;0.60;;
31298;SDS011;17927;52.350;13.402;2023-04-03T11:44:49;5.38;;;0.88;;
31298;SDS011;17927;52.350;13.402;2023-04-03T11:47:43;1.45;;;1.05;;
31298;SDS011;17927;52.350;13.402;2023-04-03T12:05:50;1.30;;;1.02;;
31298;SDS011;17927;52.350;13.402;2023-04-03T12:08:26;1.58;;;1.02;;
31298;SDS011;17927;52.350;13.402;2023-04-03T12:13:39;1.70;;;0.90;;
31298;SDS011;17927;52.350;13.402;2023-04-03T12:16:19;0.60;;;0.60;;
31298;SDS011;17927;52.350;13.402;2023-04-03T12:21:17;3.40;;;0.85;;
31298;SDS011;17927;52.350;13.402;2023-04-03T12:24:03;1.00;;;0.82;;
31298;SDS011;17927;52.350;13.402;2023-04-03T12:26:34;2.20;;;0.90;;
31298;SDS011;17927;52.350;13.402;2023-04-03T12:29:15;2.15;;;1.02;;
31298;SDS011;17927;52.350;13.402;2023-04-03T12:43:22;2.05;;;1.00;;
31298;SDS011;17927;52.350;13.402;2023-04-03T12:46:16;1.73;;;0.77;;
31298;SDS011;17927;52.350;13.402;2023-04-03T12:51:09;1.05;;;0.80;;
31298;SDS011;17927;52.350;13.402;2023-04-03T12:53:39;1.30;;;0.77;;
31298;SDS011;17927;52.350;13.402;2023-04-03T12:56:21;2.05;;;0.80;;
31298;SDS011;17927;52.350;13.402;2023-04-03T12:58:52;2.88;;;1.00;;
31298;SDS011;17927;52.350;13.402;2023-04-03T13:01:25;1.02;;;0.82;;
31298;SDS011;17927;52.350;13.402;2023-04-03T13:03:55;0.40;;;0.40;;
31298;SDS011;17927;52.350;13.402;2023-04-03T13:06:30;4.90;;;0.85;;
31298;SDS011;17927;52.350;13.402;2023-04-03T13:08:59;1.10;;;0.47;;
31298;SDS011;17927;52.350;13.402;2023-04-03T13:11:27;2.15;;;0.85;;
31298;SDS011;17927;52.350;13.402;2023-04-03T13:13:58;1.40;;;0.70;;
31298;SDS011;17927;52.350;13.402;2023-04-03T13:16:28;0.93;;;0.70;;
31298;SDS011;17927;52.350;13.402;2023-04-03T13:18:53;1.83;;;0.88;;
31298;SDS011;17927;52.350;13.402;2023-04-03T13:21:24;0.93;;;0.50;;
31298;SDS011;17927;52.350;13.402;2023-04-03T13:23:53;1.23;;;0.80;;
31298;SDS011;17927;52.350;13.402;2023-04-03T13:26:24;2.88;;;0.88;;
31298;SDS011;17927;52.350;13.402;2023-04-03T13:28:52;1.52;;;0.65;;
31298;SDS011;17927;52.350;13.402;2023-04-03T13:31:22;1.50;;;0.70;;
31298;SDS011;17927;52.350;13.402;2023-04-03T13:33:53;4.15;;;0.80;;
31298;SDS011;17927;52.350;13.402;2023-04-03T13:36:36;1.23;;;0.70;;
31298;SDS011;17927;52.350;13.402;2023-04-03T13:39:19;1.65;;;1.05;;
31298;SDS011;17927;52.350;13.402;2023-04-03T13:41:51;2.00;;;0.70;;
31298;SDS011;17927;52.350;13.402;2023-04-03T13:47:37;2.47;;;0.90;;
31298;SDS011;17927;52.350;13.402;2023-04-03T13:49:36;2.20;;;1.00;;
31298;SDS011;17927;52.350;13.402;2023-04-03T13:52:50;2.13;;;0.70;;
31298;SDS011;17927;52.350;13.402;2023-04-03T13:55:02;2.40;;;0.90;;
31298;SDS011;17927;52.350;13.402;2023-04-03T13:57:54;4.82;;;0.90;;
31298;SDS011;17927;52.350;13.402;2023-04-03T14:02:54;13.40;;;1.60;;
31298;SDS011;17927;52.350;13.402;2023-04-03T14:05:21;1.45;;;0.70;;
31298;SDS011;17927;52.350;13.402;2023-04-03T14:07:49;2.05;;;0.90;;
31298;SDS011;17927;52.350;13.402;2023-04-03T14:10:14;1.25;;;0.77;;
31298;SDS011;17927;52.350;13.402;2023-04-03T14:12:39;2.67;;;0.90;;
31298;SDS011;17927;52.350;13.402;2023-04-03T14:15:27;2.97;;;1.60;;
31298;SDS011;17927;52.350;13.402;2023-04-03T14:17:53;0.82;;;0.57;;
31298;SDS011;17927;52.350;13.402;2023-04-03T14:20:20;1.17;;;0.55;;
31298;SDS011;17927;52.350;13.402;2023-04-03T14:22:48;2.83;;;0.82;;
31298;SDS011;17927;52.350;13.402;2023-04-03T14:25:14;1.15;;;0.95;;
31298;SDS011;17927;52.350;13.402;2023-04-03T14:27:42;3.05;;;1.15;;
31298;SDS011;17927;52.350;13.402;2023-04-03T14:30:29;3.03;;;1.10;;
31298;SDS011;17927;52.350;13.402;2023-04-03T14:32:57;4.25;;;1.05;;
31298;SDS011;17927;52.350;13.402;2023-04-03T14:35:22;0.88;;;0.70;;
31298;SDS011;17927;52.350;13.402;2023-04-03T14:37:49;1.50;;;0.80;;
31298;SDS011;17927;52.350;13.402;2023-04-03T14:40:18;2.92;;;0.95;;
31298;SDS011;17927;52.350;13.402;2023-04-03T14:42:45;4.05;;;1.00;;
31298;SDS011;17927;52.350;13.402;2023-04-03T14:45:13;1.05;;;0.93;;
31298;SDS011;17927;52.350;13.402;2023-04-03T14:47:50;1.90;;;1.05;;
31298;SDS011;17927;52.350;13.402;2023-04-03T14:50:19;3.20;;;1.45;;
31298;SDS011;17927;52.350;13.402;2023-04-03T14:52:47;4.45;;;0.90;;
31298;SDS011;17927;52.350;13.402;2023-04-03T14:55:14;1.63;;;0.80;;
31298;SDS011;17927;52.350;13.402;2023-04-03T14:57:42;1.65;;;0.90;;
31298;SDS011;17927;52.350;13.402;2023-04-03T15:00:12;1.45;;;0.77;;
31298;SDS011;17927;52.350;13.402;2023-04-03T15:02:38;1.15;;;0.90;;
31298;SDS011;17927;52.350;13.402;2023-04-03T15:05:05;1.33;;;1.20;;
31298;SDS011;17927;52.350;13.402;2023-04-03T15:07:34;1.88;;;1.27;;
31298;SDS011;17927;52.350;13.402;2023-04-03T15:12:42;2.60;;;0.70;;
31298;SDS011;17927;52.350;13.402;2023-04-03T15:15:08;1.38;;;1.00;;
31298;SDS011;17927;52.350;13.402;2023-04-03T15:17:34;2.80;;;0.95;;
31298;SDS011;17927;52.350;13.402;2023-04-03T15:20:01;1.58;;;0.70;;
31298;SDS011;17927;52.350;13.402;2023-04-03T15:22:27;2.20;;;1.10;;
31298;SDS011;17927;52.350;13.402;2023-04-03T15:24:52;2.15;;;1.13;;
31298;SDS011;17927;52.350;13.402;2023-04-03T15:27:17;2.97;;;1.55;;
31298;SDS011;17927;52.350;13.402;2023-04-03T15:29:43;2.90;;;1.30;;
31298;SDS011;17927;52.350;13.402;2023-04-03T15:32:09;2.35;;;1.10;;
31298;SDS011;17927;52.350;13.402;2023-04-03T15:34:35;1.80;;;0.95;;
31298;SDS011;17927;52.350;13.402;2023-04-03T15:37:01;1.42;;;1.00;;
31298;SDS011;17927;52.350;13.402;2023-04-03T15:39:26;2.67;;;1.10;;
31298;SDS011;17927;52.350;13.402;2023-04-03T15:41:52;2.88;;;1.02;;
31298;SDS011;17927;52.350;13.402;2023-04-03T15:44:18;6.20;;;1.65;;
31298;SDS011;17927;52.350;13.402;2023-04-03T15:46:44;3.00;;;1.08;;
31298;SDS011;17927;52.350;13.402;2023-04-03T15:49:11;1.50;;;0.90;;
31298;SDS011;17927;52.350;13.402;2023-04-03T15:51:37;2.22;;;1.13;;
31298;SDS011;17927;52.350;13.402;2023-04-03T15:54:02;12.15;;;2.47;;
31298;SDS011;17927;52.350;13.402;2023-04-03T15:56:27;2.35;;;1.17;;
31298;SDS011;17927;52.350;13.402;2023-04-03T15:58:53;1.48;;;1.20;;